METAR AND TAF INFORMATION
METAR FOR ZJSY
ADDS - METARS form results

(0637 UTC 21 November 2019)
Data provider http://aviationweather.gov/metar/data/
 
METAR text: ZJSY 210600Z 12004MPS 070V180 9999 SCT050 31/18 Q1015 NOSIG
Conditions at: ZJSY (SANYA/FENGHUANG , CN) observed 0600 UTC 21 November 2019
Temperature: 31.0°C (88°F)
Dewpoint: 18.0°C (64°F) [RH = 46%]
Pressure (altimeter): 29.97 inches Hg (1015.0 mb)
Winds: from the ESE (120 degrees) at 9 MPH (8 knots; 4.1 m/s)
Visibility: 6 or more miles (10+ km)
Ceiling: at least 12,000 feet AGL
Clouds: scattered clouds at 5000 feet AGL
Weather: no significant weather observed at this time

Forecast for: ZJSY (SANYA/FENGHUANG , CN)
Text: TAF ZJSY 210301Z 2106/2206 09005MPS 9999 FEW020 TX29/2106Z TN20/2121Z
Forecast period: 0600 UTC 21 November 2019 to 0600 UTC 22 November 2019
Forecast type: FROM: standard forecast or significant change
Winds: from the E (90 degrees) at 12 MPH (10 knots; 5.1 m/s)
Visibility: 6 or more miles 10+ km)
Ceiling: at least 12,000 feet AGL
Clouds: few clouds at 2000 feet AGL
Weather: no significant weather forecast for this period

 AIRPORT MAP

 RUNWAY INFORMATION

 AIRPORT FREQUENCIES
Type TWR Name FENGHUANG Frequency 118.15 MHZ

 AIRPORT NEAR NAVIGATION AIDS
Type VOR-DME Name Sanya Frequency 112500 KHZ
Type NDB Name Baolong Frequency 426 KHZ



2018 Air Astana Virtual Airline